createdAt,value
2018-04-17T00:00:24.098Z,0.00
2018-04-17T00:01:24.080Z,0.00
2018-04-17T00:02:24.056Z,0.00
2018-04-17T00:03:24.037Z,0.00
2018-04-17T00:04:24.024Z,0.00
2018-04-17T00:05:24.001Z,0.00
2018-04-17T00:06:23.981Z,0.00
2018-04-17T00:07:23.956Z,0.00
2018-04-17T00:08:23.937Z,0.00
2018-04-17T00:09:23.924Z,0.00
2018-04-17T00:10:23.902Z,0.00
2018-04-17T00:11:23.877Z,0.00
2018-04-17T00:12:23.870Z,0.00
2018-04-17T00:13:23.839Z,0.00
2018-04-17T00:14:23.818Z,0.00
2018-04-17T00:15:23.797Z,0.00
2018-04-17T00:16:23.783Z,0.00
2018-04-17T00:17:23.774Z,0.00
2018-04-17T00:18:23.738Z,0.00
2018-04-17T00:19:23.744Z,0.00
2018-04-17T00:20:23.699Z,0.00
2018-04-17T00:21:23.676Z,0.00
2018-04-17T00:22:23.659Z,0.00
2018-04-17T00:23:23.641Z,0.00
2018-04-17T00:24:23.621Z,0.00
2018-04-17T00:25:23.610Z,0.00
2018-04-17T00:26:23.577Z,0.00
2018-04-17T00:27:23.556Z,0.00
2018-04-17T00:28:23.537Z,0.00
2018-04-17T00:29:23.520Z,0.00
2018-04-17T00:30:23.500Z,0.00
2018-04-17T00:31:23.475Z,0.00
2018-04-17T00:32:23.503Z,0.00
2018-04-17T00:33:23.436Z,0.00
2018-04-17T00:34:23.416Z,0.00
2018-04-17T00:35:23.397Z,0.00
2018-04-17T00:36:23.380Z,0.00
2018-04-17T00:37:23.355Z,0.00
2018-04-17T00:38:23.339Z,0.00
2018-04-17T00:39:23.313Z,0.00
2018-04-17T00:40:23.296Z,0.00
2018-04-17T00:41:23.273Z,0.00
2018-04-17T00:42:23.459Z,0.00
2018-04-17T00:43:23.255Z,0.00
2018-04-17T00:44:23.216Z,0.00
2018-04-17T00:45:23.194Z,0.00
2018-04-17T00:46:23.187Z,0.00
2018-04-17T00:47:23.190Z,0.00
2018-04-17T00:48:23.199Z,0.00
2018-04-17T00:49:23.207Z,0.00
2018-04-17T00:50:23.199Z,0.00
2018-04-17T00:51:23.194Z,0.00
2018-04-17T00:52:23.190Z,0.00
2018-04-17T00:53:23.158Z,0.00
2018-04-17T00:54:23.078Z,0.00
2018-04-17T00:55:23.003Z,0.00
2018-04-17T00:56:24.357Z,0.00
2018-04-17T00:57:22.954Z,0.00
2018-04-17T00:58:22.933Z,0.00
2018-04-17T00:59:22.913Z,0.00
2018-04-17T01:00:22.896Z,0.00
2018-04-17T01:01:22.871Z,0.00
2018-04-17T01:02:22.853Z,0.00
2018-04-17T01:03:22.835Z,0.00
2018-04-17T01:04:22.819Z,0.00
2018-04-17T01:05:22.793Z,0.00
2018-04-17T01:06:22.826Z,0.00
2018-04-17T01:07:22.752Z,0.00
2018-04-17T01:08:22.757Z,0.00
2018-04-17T01:09:22.709Z,0.00
2018-04-17T01:10:22.698Z,0.00
2018-04-17T01:11:22.682Z,0.00
2018-04-17T01:12:22.646Z,0.00
2018-04-17T01:13:22.638Z,0.00
2018-04-17T01:14:22.609Z,0.00
2018-04-17T01:15:22.592Z,0.00
2018-04-17T01:16:22.572Z,0.00
2018-04-17T01:17:23.506Z,0.00
2018-04-17T01:18:22.532Z,0.00
2018-04-17T01:19:22.509Z,0.00
2018-04-17T01:20:22.493Z,0.00
2018-04-17T01:21:22.472Z,0.00
2018-04-17T01:22:22.449Z,0.00
2018-04-17T01:23:22.434Z,0.00
2018-04-17T01:24:22.407Z,0.00
2018-04-17T01:25:22.392Z,0.00
2018-04-17T01:26:22.367Z,0.00
2018-04-17T01:27:22.346Z,0.00
2018-04-17T01:28:22.326Z,0.00
2018-04-17T01:29:22.307Z,0.00
2018-04-17T01:30:22.294Z,0.00
2018-04-17T01:31:22.267Z,0.00
2018-04-17T01:32:22.259Z,0.00
2018-04-17T01:33:22.236Z,0.00
2018-04-17T01:34:22.217Z,0.00
2018-04-17T01:35:22.183Z,0.00
2018-04-17T01:36:22.168Z,0.00
2018-04-17T01:37:22.163Z,0.00
2018-04-17T01:38:22.554Z,0.00
2018-04-17T01:39:22.101Z,0.00
2018-04-17T01:40:22.086Z,0.00
2018-04-17T01:41:22.065Z,0.00
2018-04-17T01:42:22.042Z,0.00
2018-04-17T01:43:22.038Z,0.00
2018-04-17T01:44:22.023Z,0.00
2018-04-17T01:45:21.982Z,0.00
2018-04-17T01:46:21.964Z,0.00
2018-04-17T01:47:21.945Z,0.00
2018-04-17T01:48:21.921Z,0.00
2018-04-17T01:49:21.937Z,0.00
2018-04-17T01:50:21.941Z,0.00
2018-04-17T01:51:21.864Z,0.00
2018-04-17T01:52:21.847Z,0.00
2018-04-17T01:53:21.840Z,0.00
2018-04-17T01:54:21.797Z,0.00
2018-04-17T01:55:21.779Z,0.00
2018-04-17T01:56:21.762Z,0.00
2018-04-17T01:57:21.748Z,0.00
2018-04-17T01:58:21.718Z,0.00
2018-04-17T01:59:21.725Z,0.00
2018-04-17T02:00:21.685Z,0.00
2018-04-17T02:01:21.663Z,0.00
2018-04-17T02:02:21.639Z,0.00
2018-04-17T02:03:21.634Z,0.00
2018-04-17T02:04:21.597Z,0.00
2018-04-17T02:05:21.575Z,0.00
2018-04-17T02:06:21.557Z,0.00
2018-04-17T02:07:21.540Z,0.00
2018-04-17T02:08:21.515Z,0.00
2018-04-17T02:09:21.492Z,0.00
2018-04-17T02:10:21.473Z,0.00
2018-04-17T02:11:21.452Z,0.00
2018-04-17T02:12:21.434Z,0.00
2018-04-17T02:13:21.420Z,0.00
2018-04-17T02:14:21.391Z,0.00
2018-04-17T02:15:21.382Z,0.00
2018-04-17T02:16:21.347Z,0.00
2018-04-17T02:17:21.332Z,0.00
2018-04-17T02:18:21.309Z,0.00
2018-04-17T02:19:21.295Z,0.00
2018-04-17T02:20:21.276Z,0.00
2018-04-17T02:21:21.277Z,0.00
2018-04-17T02:22:21.275Z,0.00
2018-04-17T02:23:21.286Z,0.00
2018-04-17T02:24:21.277Z,0.00
2018-04-17T02:25:21.285Z,0.00
2018-04-17T02:26:21.263Z,0.00
2018-04-17T02:27:21.178Z,0.00
2018-04-17T02:28:21.168Z,0.00
2018-04-17T02:29:21.079Z,0.00
2018-04-17T02:30:21.057Z,0.00
2018-04-17T02:31:21.071Z,0.00
2018-04-17T02:32:21.084Z,0.00
2018-04-17T02:33:20.997Z,0.00
2018-04-17T02:34:20.976Z,0.00
2018-04-17T02:35:20.953Z,0.00
2018-04-17T02:36:20.934Z,0.00
2018-04-17T02:37:20.919Z,0.00
2018-04-17T02:38:20.890Z,0.00
2018-04-17T02:39:20.871Z,0.00
2018-04-17T02:40:20.848Z,0.00
2018-04-17T02:41:20.832Z,0.00
2018-04-17T02:42:20.808Z,0.00
2018-04-17T02:43:20.787Z,0.00
2018-04-17T02:44:20.768Z,0.00
2018-04-17T02:45:20.745Z,0.00
2018-04-17T02:46:20.732Z,0.00
2018-04-17T02:47:20.709Z,0.00
2018-04-17T02:48:20.681Z,0.00
2018-04-17T02:49:20.661Z,0.00
2018-04-17T02:50:20.649Z,0.00
2018-04-17T02:51:20.622Z,0.00
2018-04-17T02:52:20.604Z,0.00
2018-04-17T02:53:20.583Z,0.00
2018-04-17T02:54:20.584Z,0.00
2018-04-17T02:55:20.539Z,0.00
2018-04-17T02:56:20.517Z,0.00
2018-04-17T02:57:20.502Z,0.00
2018-04-17T02:58:20.476Z,0.00
2018-04-17T02:59:20.455Z,0.00
2018-04-17T03:00:20.433Z,0.00
2018-04-17T03:01:20.415Z,0.00
2018-04-17T03:02:20.390Z,0.00
2018-04-17T03:03:20.373Z,0.00
2018-04-17T03:04:20.350Z,0.00
2018-04-17T03:05:20.331Z,0.00
2018-04-17T03:06:20.313Z,0.00
2018-04-17T03:07:20.290Z,0.00
2018-04-17T03:08:20.265Z,0.00
2018-04-17T03:09:20.248Z,0.00
2018-04-17T03:10:20.232Z,0.00
2018-04-17T03:11:20.205Z,0.00
2018-04-17T03:12:20.373Z,0.00
2018-04-17T03:13:20.169Z,0.00
2018-04-17T03:14:20.156Z,0.00
2018-04-17T03:15:20.122Z,0.00
2018-04-17T03:16:20.102Z,0.00
2018-04-17T03:17:20.078Z,0.00
2018-04-17T03:18:20.066Z,0.00
2018-04-17T03:19:20.039Z,0.00
2018-04-17T03:20:20.018Z,0.00
2018-04-17T03:21:19.997Z,0.00
2018-04-17T03:22:19.975Z,0.00
2018-04-17T03:23:19.957Z,0.00
2018-04-17T03:24:19.938Z,0.00
2018-04-17T03:25:19.921Z,0.00
2018-04-17T03:26:19.899Z,0.00
2018-04-17T03:27:19.869Z,0.00
2018-04-17T03:28:19.853Z,0.00
2018-04-17T03:29:19.831Z,0.00
2018-04-17T03:30:19.813Z,0.00
2018-04-17T03:31:19.785Z,0.00
2018-04-17T03:32:19.765Z,0.00
2018-04-17T03:33:19.747Z,0.00
2018-04-17T03:34:19.741Z,0.00
2018-04-17T03:35:19.709Z,0.00
2018-04-17T03:36:19.683Z,0.00
2018-04-17T03:37:19.664Z,0.00
2018-04-17T03:38:19.696Z,0.00
2018-04-17T03:39:19.619Z,0.00
2018-04-17T03:40:19.598Z,0.00
2018-04-17T03:41:19.584Z,0.00
2018-04-17T03:42:19.615Z,0.00
2018-04-17T03:43:19.536Z,0.00
2018-04-17T03:44:19.521Z,0.00
2018-04-17T03:45:19.493Z,0.00
2018-04-17T03:46:19.473Z,0.00
2018-04-17T03:47:19.447Z,0.00
2018-04-17T03:48:19.438Z,0.00
2018-04-17T03:49:19.409Z,0.00
2018-04-17T03:50:19.389Z,0.00
2018-04-17T03:51:19.373Z,0.00
2018-04-17T03:52:19.404Z,0.00
2018-04-17T03:53:19.356Z,0.00
2018-04-17T03:54:19.352Z,0.00
2018-04-17T03:55:19.385Z,0.00
2018-04-17T03:56:19.356Z,0.00
2018-04-17T03:57:19.367Z,0.00
2018-04-17T03:58:19.394Z,0.00
2018-04-17T03:59:19.278Z,0.00
2018-04-17T04:00:19.254Z,0.00
2018-04-17T04:01:19.155Z,0.00
2018-04-17T04:02:19.139Z,0.00
2018-04-17T04:03:19.115Z,0.00
2018-04-17T04:04:19.096Z,0.00
2018-04-17T04:05:19.077Z,0.00
2018-04-17T04:06:19.058Z,4.00
2018-04-17T04:07:19.039Z,4.00
2018-04-17T04:08:19.012Z,4.00
2018-04-17T04:09:18.987Z,0.00
2018-04-17T04:10:18.969Z,0.00
2018-04-17T04:11:18.943Z,0.00
2018-04-17T04:12:18.928Z,4.00
2018-04-17T04:13:18.905Z,4.00
2018-04-17T04:14:18.884Z,4.00
2018-04-17T04:15:18.870Z,4.00
2018-04-17T04:16:18.840Z,4.00
2018-04-17T04:17:18.890Z,8.00
2018-04-17T04:18:18.800Z,8.00
2018-04-17T04:19:18.780Z,4.00
2018-04-17T04:20:18.766Z,8.00
2018-04-17T04:21:18.735Z,8.00
2018-04-17T04:22:18.716Z,8.00
2018-04-17T04:23:18.697Z,12.00
2018-04-17T04:24:18.673Z,12.00
2018-04-17T04:25:18.650Z,12.00
2018-04-17T04:26:18.632Z,8.00
2018-04-17T04:27:18.648Z,8.00
2018-04-17T04:28:18.585Z,12.00
2018-04-17T04:29:18.567Z,8.00
2018-04-17T04:30:18.546Z,12.00
2018-04-17T04:31:18.522Z,16.00
2018-04-17T04:32:18.511Z,16.00
2018-04-17T04:33:18.484Z,12.00
2018-04-17T04:34:18.461Z,12.00
2018-04-17T04:35:18.436Z,12.00
2018-04-17T04:36:18.429Z,12.00
2018-04-17T04:37:18.398Z,20.00
2018-04-17T04:38:18.427Z,20.00
2018-04-17T04:39:18.355Z,16.00
2018-04-17T04:40:18.335Z,20.00
2018-04-17T04:41:18.312Z,24.00
2018-04-17T04:42:18.296Z,20.00
2018-04-17T04:43:18.275Z,24.00
2018-04-17T04:44:18.254Z,24.00
2018-04-17T04:45:18.232Z,24.00
2018-04-17T04:46:18.206Z,24.00
2018-04-17T04:47:18.194Z,28.00
2018-04-17T04:48:18.168Z,32.00
2018-04-17T04:49:18.147Z,32.00
2018-04-17T04:50:18.131Z,28.00
2018-04-17T04:51:18.105Z,28.00
2018-04-17T04:52:18.082Z,28.00
2018-04-17T04:53:18.055Z,28.00
2018-04-17T04:54:18.043Z,32.00
2018-04-17T04:55:19.155Z,32.00
2018-04-17T04:56:18.026Z,36.00
2018-04-17T04:57:17.985Z,40.00
2018-04-17T04:58:17.972Z,44.00
2018-04-17T04:59:17.932Z,52.00
2018-04-17T05:00:17.913Z,56.00
2018-04-17T05:01:17.897Z,56.00
2018-04-17T05:02:17.886Z,56.00
2018-04-17T05:03:17.847Z,64.00
2018-04-17T05:04:17.832Z,64.00
2018-04-17T05:05:17.805Z,64.00
2018-04-17T05:06:17.784Z,68.00
2018-04-17T05:07:17.761Z,68.00
2018-04-17T05:08:17.744Z,72.00
2018-04-17T05:09:17.718Z,68.00
2018-04-17T05:10:17.699Z,72.00
2018-04-17T05:11:17.675Z,76.00
2018-04-17T05:12:17.654Z,88.00
2018-04-17T05:13:17.635Z,84.00
2018-04-17T05:14:17.613Z,92.00
2018-04-17T05:15:17.597Z,96.00
2018-04-17T05:16:18.790Z,92.00
2018-04-17T05:17:17.547Z,92.00
2018-04-17T05:18:17.526Z,80.00
2018-04-17T05:19:17.558Z,72.00
2018-04-17T05:20:17.482Z,68.00
2018-04-17T05:21:17.463Z,72.00
2018-04-17T05:22:17.449Z,80.00
2018-04-17T05:23:17.466Z,92.00
2018-04-17T05:24:17.453Z,104.00
2018-04-17T05:25:17.449Z,104.00
2018-04-17T05:26:17.450Z,100.00
2018-04-17T05:27:17.448Z,92.00
2018-04-17T05:28:17.425Z,88.00
2018-04-17T05:29:17.352Z,92.00
2018-04-17T05:30:17.351Z,96.00
2018-04-17T05:31:17.248Z,100.00
2018-04-17T05:32:17.235Z,104.00
2018-04-17T05:33:17.209Z,108.00
2018-04-17T05:34:17.247Z,112.00
2018-04-17T05:35:17.160Z,112.00
2018-04-17T05:36:17.137Z,116.00
2018-04-17T05:37:17.996Z,112.00
2018-04-17T05:38:17.097Z,112.00
2018-04-17T05:39:17.080Z,108.00
2018-04-17T05:40:17.053Z,108.00
2018-04-17T05:41:17.032Z,112.00
2018-04-17T05:42:17.009Z,112.00
2018-04-17T05:43:16.988Z,112.00
2018-04-17T05:44:16.977Z,120.00
2018-04-17T05:45:16.948Z,120.00
2018-04-17T05:46:16.933Z,128.00
2018-04-17T05:47:16.904Z,128.00
2018-04-17T05:48:16.884Z,132.00
2018-04-17T05:49:16.886Z,132.00
2018-04-17T05:50:16.885Z,132.00
2018-04-17T05:51:16.826Z,128.00
2018-04-17T05:52:16.797Z,136.00
2018-04-17T05:53:16.791Z,140.00
2018-04-17T05:54:16.759Z,148.00
2018-04-17T05:55:16.732Z,144.00
2018-04-17T05:56:16.720Z,164.00
2018-04-17T05:57:16.692Z,164.00
2018-04-17T05:58:18.049Z,172.00
2018-04-17T05:59:16.656Z,168.00
2018-04-17T06:00:16.674Z,172.00
2018-04-17T06:01:16.606Z,176.00
2018-04-17T06:02:16.588Z,184.00
2018-04-17T06:03:16.565Z,188.00
2018-04-17T06:05:51.583Z,208.00
2018-04-17T06:06:51.377Z,196.00
2018-04-17T06:07:51.295Z,192.00
2018-04-17T06:08:51.272Z,176.00
2018-04-17T06:09:51.265Z,156.00
2018-04-17T06:10:51.239Z,156.00
2018-04-17T06:11:51.209Z,168.00
2018-04-17T06:12:51.200Z,180.00
2018-04-17T06:13:51.167Z,196.00
2018-04-17T06:14:51.143Z,216.00
2018-04-17T06:15:51.127Z,232.00
2018-04-17T06:16:51.105Z,256.00
2018-04-17T06:17:51.083Z,280.00
2018-04-17T06:18:51.068Z,296.00
2018-04-17T06:19:51.037Z,296.00
2018-04-17T06:20:51.019Z,280.00
2018-04-17T06:21:50.998Z,280.00
2018-04-17T06:22:50.996Z,284.00
2018-04-17T06:23:50.953Z,272.00
2018-04-17T06:24:50.935Z,256.00
2018-04-17T06:25:50.916Z,240.00
2018-04-17T06:26:50.899Z,236.00
2018-04-17T06:27:50.871Z,236.00
2018-04-17T06:28:50.860Z,244.00
2018-04-17T06:29:50.836Z,260.00
2018-04-17T06:30:50.808Z,264.00
2018-04-17T06:31:50.787Z,260.00
2018-04-17T06:32:50.768Z,252.00
2018-04-17T06:33:50.745Z,252.00
2018-04-17T06:34:50.777Z,260.00
2018-04-17T06:37:26.457Z,320.00
2018-04-17T06:38:25.406Z,332.00
2018-04-17T06:40:21.608Z,296.00
2018-04-17T06:41:21.411Z,268.00
2018-04-17T06:43:14.899Z,232.00
2018-04-17T06:44:14.807Z,236.00
2018-04-17T06:46:10.830Z,260.00
2018-04-17T06:47:10.655Z,276.00
2018-04-17T06:49:06.729Z,288.00
2018-04-17T06:50:06.596Z,280.00
2018-04-17T06:52:02.674Z,292.00
2018-04-17T06:53:02.556Z,300.00
2018-04-17T06:54:59.764Z,300.00
2018-04-17T06:55:59.511Z,288.00
2018-04-17T06:57:55.649Z,276.00
2018-04-17T06:58:55.511Z,288.00
2018-04-17T07:00:51.620Z,344.00
2018-04-17T07:01:51.517Z,332.00
2018-04-17T07:02:52.638Z,300.00
2018-04-17T07:03:51.346Z,284.00
2018-04-17T07:04:51.320Z,280.00
2018-04-17T07:05:51.299Z,284.00
2018-04-17T07:06:51.279Z,292.00
2018-04-17T07:07:51.255Z,296.00
2018-04-17T07:08:51.235Z,308.00
2018-04-17T07:09:51.224Z,324.00
2018-04-17T07:10:51.193Z,336.00
2018-04-17T07:11:51.176Z,360.00
2018-04-17T07:12:51.153Z,436.00
2018-04-17T07:13:51.131Z,436.00
2018-04-17T07:14:51.109Z,352.00
2018-04-17T07:15:51.094Z,300.00
2018-04-17T07:16:51.072Z,280.00
2018-04-17T07:17:51.054Z,276.00
2018-04-17T07:18:51.045Z,276.00
2018-04-17T07:19:51.008Z,296.00
2018-04-17T07:20:50.993Z,332.00
2018-04-17T07:21:50.971Z,352.00
2018-04-17T07:22:50.947Z,288.00
2018-04-17T07:23:51.760Z,260.00
2018-04-17T07:24:50.901Z,264.00
2018-04-17T07:25:50.920Z,316.00
2018-04-17T07:26:50.909Z,328.00
2018-04-17T07:27:50.850Z,336.00
2018-04-17T07:28:50.821Z,344.00
2018-04-17T07:29:50.799Z,348.00
2018-04-17T07:31:26.293Z,344.00
2018-04-17T07:31:50.758Z,348.00
2018-04-17T07:32:50.752Z,352.00
2018-04-17T07:33:50.724Z,356.00
2018-04-17T07:34:50.699Z,364.00
2018-04-17T07:35:50.670Z,364.00
2018-04-17T07:36:50.665Z,368.00
2018-04-17T07:37:50.630Z,368.00
2018-04-17T07:38:50.644Z,368.00
2018-04-17T07:39:50.590Z,360.00
2018-04-17T07:40:50.567Z,352.00
2018-04-17T07:41:50.548Z,344.00
2018-04-17T07:42:50.524Z,336.00
2018-04-17T07:43:50.506Z,336.00
2018-04-17T07:44:50.793Z,356.00
2018-04-17T07:45:50.463Z,368.00
2018-04-17T07:46:50.441Z,372.00
2018-04-17T07:47:50.424Z,364.00
2018-04-17T07:48:50.407Z,356.00
2018-04-17T07:49:50.384Z,352.00
2018-04-17T07:50:50.357Z,352.00
2018-04-17T07:51:50.392Z,364.00
2018-04-17T07:52:50.322Z,392.00
2018-04-17T07:53:50.296Z,420.00
2018-04-17T07:54:50.275Z,436.00
2018-04-17T07:55:50.259Z,444.00
2018-04-17T07:56:50.252Z,444.00
2018-04-17T07:57:50.212Z,428.00
2018-04-17T07:58:50.213Z,420.00
2018-04-17T07:59:50.169Z,420.00
2018-04-17T08:00:50.154Z,424.00
2018-04-17T08:01:50.130Z,420.00
2018-04-17T08:02:50.107Z,404.00
2018-04-17T08:03:50.089Z,388.00
2018-04-17T08:04:50.065Z,388.00
2018-04-17T08:05:50.048Z,400.00
2018-04-17T08:06:50.029Z,436.00
2018-04-17T08:07:50.009Z,476.00
2018-04-17T08:08:50.039Z,476.00
2018-04-17T08:09:49.974Z,444.00
2018-04-17T08:10:49.942Z,404.00
2018-04-17T08:11:49.959Z,396.00
2018-04-17T08:12:49.901Z,424.00
2018-04-17T08:13:49.878Z,464.00
2018-04-17T08:14:49.857Z,500.00
2018-04-17T08:15:49.840Z,500.00
2018-04-17T08:16:49.823Z,488.00
2018-04-17T08:17:49.796Z,476.00
2018-04-17T08:18:49.784Z,476.00
2018-04-17T08:19:49.753Z,492.00
2018-04-17T08:20:49.737Z,520.00
2018-04-17T08:21:49.718Z,548.00
2018-04-17T08:22:49.694Z,580.00
2018-04-17T08:23:49.672Z,600.00
2018-04-17T08:24:49.650Z,632.00
2018-04-17T08:25:49.628Z,664.00
2018-04-17T08:26:49.615Z,716.00
2018-04-17T08:27:49.692Z,708.00
2018-04-17T08:28:49.619Z,660.00
2018-04-17T08:29:49.618Z,680.00
2018-04-17T08:30:49.622Z,732.00
2018-04-17T08:31:49.638Z,760.00
2018-04-17T08:32:49.596Z,780.00
2018-04-17T08:33:49.577Z,832.00
2018-04-17T08:34:49.557Z,876.00
2018-04-17T08:35:49.427Z,848.00
2018-04-17T08:36:49.460Z,768.00
2018-04-17T08:37:49.378Z,680.00
2018-04-17T08:38:49.371Z,616.00
2018-04-17T08:39:49.354Z,632.00
2018-04-17T08:40:49.348Z,712.00
2018-04-17T08:41:49.303Z,804.00
2018-04-17T08:42:49.313Z,776.00
2018-04-17T08:43:49.256Z,704.00
2018-04-17T08:44:49.237Z,640.00
2018-04-17T08:45:49.220Z,588.00
2018-04-17T08:46:49.200Z,556.00
2018-04-17T08:47:49.177Z,536.00
2018-04-17T08:48:49.155Z,524.00
2018-04-17T08:49:49.187Z,500.00
2018-04-17T08:50:49.131Z,468.00
2018-04-17T08:51:49.096Z,444.00
2018-04-17T08:52:49.071Z,420.00
2018-04-17T08:53:49.050Z,412.00
2018-04-17T08:54:49.032Z,432.00
2018-04-17T08:55:49.014Z,476.00
2018-04-17T08:56:48.988Z,516.00
2018-04-17T08:57:48.968Z,532.00
2018-04-17T08:58:48.947Z,552.00
2018-04-17T08:59:48.947Z,556.00
2018-04-17T09:00:48.909Z,560.00
2018-04-17T09:01:48.885Z,556.00
2018-04-17T09:02:48.867Z,540.00
2018-04-17T09:03:48.846Z,516.00
2018-04-17T09:04:48.830Z,476.00
2018-04-17T09:05:48.801Z,464.00
2018-04-17T09:06:48.785Z,472.00
2018-04-17T09:07:48.778Z,484.00
2018-04-17T09:08:48.741Z,508.00
2018-04-17T09:09:48.722Z,532.00
2018-04-17T09:10:48.701Z,532.00
2018-04-17T09:11:48.734Z,528.00
2018-04-17T09:12:48.659Z,500.00
2018-04-17T09:13:48.640Z,488.00
2018-04-17T09:14:48.622Z,508.00
2018-04-17T09:15:48.598Z,524.00
2018-04-17T09:16:48.577Z,532.00
2018-04-17T09:17:48.554Z,544.00
2018-04-17T09:18:48.537Z,560.00
2018-04-17T09:19:48.529Z,576.00
2018-04-17T09:20:48.493Z,592.00
2018-04-17T09:21:48.474Z,592.00
2018-04-17T09:22:48.451Z,604.00
2018-04-17T09:23:48.432Z,636.00
2018-04-17T09:24:48.413Z,688.00
2018-04-17T09:25:48.390Z,716.00
2018-04-17T09:26:48.369Z,692.00
2018-04-17T09:27:48.350Z,668.00
2018-04-17T09:28:48.331Z,672.00
2018-04-17T09:29:48.304Z,676.00
2018-04-17T09:30:48.283Z,684.00
2018-04-17T09:31:48.265Z,692.00
2018-04-17T09:32:48.286Z,716.00
2018-04-17T09:33:48.272Z,748.00
2018-04-17T09:34:48.200Z,792.00
2018-04-17T09:35:48.182Z,808.00
2018-04-17T09:36:48.161Z,780.00
2018-04-17T09:37:48.138Z,780.00
2018-04-17T09:38:48.118Z,772.00
2018-04-17T09:39:48.098Z,784.00
2018-04-17T09:40:48.079Z,800.00
2018-04-17T09:41:48.059Z,836.00
2018-04-17T09:42:48.047Z,896.00
2018-04-17T09:43:48.014Z,968.00
2018-04-17T09:44:47.994Z,944.00
2018-04-17T09:45:48.008Z,920.00
2018-04-17T09:46:47.957Z,896.00
2018-04-17T09:47:47.930Z,904.00
2018-04-17T09:48:47.907Z,888.00
2018-04-17T09:49:47.886Z,872.00
2018-04-17T09:50:47.869Z,864.00
2018-04-17T09:51:47.846Z,884.00
2018-04-17T09:52:47.829Z,916.00
2018-04-17T09:53:47.804Z,944.00
2018-04-17T09:54:47.799Z,992.00
2018-04-17T09:55:47.779Z,1036.00
2018-04-17T09:56:47.744Z,1056.00
2018-04-17T09:57:47.726Z,1032.00
2018-04-17T09:58:47.708Z,964.00
2018-04-17T09:59:47.702Z,896.00
2018-04-17T10:00:47.716Z,848.00
2018-04-17T10:01:47.750Z,828.00
2018-04-17T10:02:47.713Z,816.00
2018-04-17T10:03:47.711Z,832.00
2018-04-17T10:04:47.717Z,900.00
2018-04-17T10:05:47.685Z,1004.00
2018-04-17T10:06:47.612Z,1060.00
2018-04-17T10:07:47.596Z,1068.00
2018-04-17T10:08:47.537Z,1004.00
2018-04-17T10:09:47.478Z,956.00
2018-04-17T10:10:47.462Z,940.00
2018-04-17T10:11:47.442Z,940.00
2018-04-17T10:12:47.417Z,952.00
2018-04-17T10:13:47.398Z,984.00
2018-04-17T10:14:47.375Z,992.00
2018-04-17T10:15:47.397Z,976.00
2018-04-17T10:16:47.335Z,960.00
2018-04-17T10:17:47.317Z,964.00
2018-04-17T10:18:47.292Z,1024.00
2018-04-17T10:19:48.466Z,1156.00
2018-04-17T10:20:47.269Z,1324.00
2018-04-17T10:21:47.236Z,1408.00
2018-04-17T10:22:47.215Z,1468.00
2018-04-17T10:23:47.205Z,1476.00
2018-04-17T10:24:47.173Z,1380.00
2018-04-17T10:25:47.154Z,1252.00
2018-04-17T10:26:47.135Z,1244.00
2018-04-17T10:27:47.116Z,1252.00
2018-04-17T10:28:47.093Z,1240.00
2018-04-17T10:29:47.108Z,1212.00
2018-04-17T10:30:47.057Z,1196.00
2018-04-17T10:33:22.293Z,1244.00
2018-04-17T10:34:21.774Z,1320.00
2018-04-17T10:35:21.741Z,1496.00
2018-04-17T10:36:21.740Z,1764.00
2018-04-17T10:37:21.738Z,1948.00
2018-04-17T10:38:21.733Z,2328.00
2018-04-17T10:39:21.740Z,2812.00
2018-04-17T10:40:21.718Z,3132.00
2018-04-17T10:41:21.646Z,4312.00
2018-04-17T10:42:21.641Z,4184.00
2018-04-17T10:43:21.538Z,6304.00
2018-04-17T10:44:21.515Z,3256.00
2018-04-17T10:45:21.500Z,2672.00
2018-04-17T10:46:21.482Z,2848.00
2018-04-17T10:47:21.501Z,4676.00
2018-04-17T10:48:21.494Z,3272.00
2018-04-17T10:49:21.417Z,1988.00
2018-04-17T10:50:21.409Z,1688.00
2018-04-17T10:51:21.380Z,1988.00
2018-04-17T10:52:21.360Z,2872.00
2018-04-17T10:53:21.343Z,3040.00
2018-04-17T10:54:21.317Z,3104.00
2018-04-17T10:55:21.302Z,3516.00
2018-04-17T10:56:21.281Z,3296.00
2018-04-17T10:57:21.280Z,3368.00
2018-04-17T10:58:21.241Z,4500.00
2018-04-17T10:59:21.220Z,6196.00
2018-04-17T11:00:21.205Z,17984.00
2018-04-17T11:01:21.180Z,9388.00
2018-04-17T11:02:21.167Z,9920.00
2018-04-17T11:03:21.180Z,13444.00
2018-04-17T11:04:21.128Z,19040.00
2018-04-17T11:05:21.102Z,6056.00
2018-04-17T11:06:21.085Z,12612.00
2018-04-17T11:07:21.065Z,8064.00
2018-04-17T11:08:21.054Z,8408.00
2018-04-17T11:09:21.028Z,7796.00
2018-04-17T11:10:21.018Z,6296.00
2018-04-17T11:11:20.992Z,5960.00
2018-04-17T11:12:20.971Z,8412.00
2018-04-17T11:13:20.960Z,10348.00
2018-04-17T11:14:20.937Z,10060.00
2018-04-17T11:15:20.916Z,59232.00
2018-04-17T11:16:20.905Z,55808.00
2018-04-17T11:17:20.885Z,57056.00
2018-04-17T11:18:20.865Z,60096.00
2018-04-17T11:19:20.847Z,58752.00
2018-04-17T11:20:20.830Z,59232.00
2018-04-17T11:21:20.819Z,64320.00
2018-04-17T11:22:20.798Z,65056.00
2018-04-17T11:23:20.778Z,65056.00
2018-04-17T11:24:20.764Z,62944.00
2018-04-17T11:25:20.750Z,59488.00
2018-04-17T11:26:20.732Z,49184.00
2018-04-17T11:27:20.717Z,53888.00
2018-04-17T11:28:20.699Z,57920.00
2018-04-17T11:29:20.686Z,52672.00
2018-04-17T11:30:20.673Z,50336.00
2018-04-17T11:31:20.656Z,60864.00
2018-04-17T11:32:20.639Z,61120.00
2018-04-17T11:33:20.657Z,61984.00
2018-04-17T11:34:20.616Z,71296.00
2018-04-17T11:35:20.595Z,69920.00
2018-04-17T11:36:20.643Z,69056.00
2018-04-17T11:37:20.572Z,71840.00
2018-04-17T11:38:20.552Z,70784.00
2018-04-17T11:39:20.537Z,58272.00
2018-04-17T11:40:20.522Z,53984.00
2018-04-17T11:41:20.515Z,64768.00
2018-04-17T11:42:20.512Z,63520.00
2018-04-17T11:43:20.481Z,35744.00
2018-04-17T11:44:20.468Z,12812.00
2018-04-17T11:45:21.394Z,18816.00
2018-04-17T11:46:20.442Z,38816.00
2018-04-17T11:47:20.427Z,41024.00
2018-04-17T11:48:20.420Z,17088.00
2018-04-17T11:49:20.406Z,15968.00
2018-04-17T11:50:20.386Z,43424.00
2018-04-17T11:51:20.376Z,62880.00
2018-04-17T11:52:20.380Z,62784.00
2018-04-17T11:53:20.344Z,47840.00
2018-04-17T11:54:20.332Z,33760.00
2018-04-17T11:55:20.325Z,23232.00
2018-04-17T11:56:20.303Z,8944.00
2018-04-17T11:57:20.297Z,7272.00
2018-04-17T11:58:20.276Z,6652.00
2018-04-17T11:59:20.262Z,6576.00
2018-04-17T12:00:20.248Z,18400.00
2018-04-17T12:01:20.245Z,18688.00
2018-04-17T12:02:20.266Z,7088.00
2018-04-17T12:03:20.247Z,5868.00
2018-04-17T12:04:20.192Z,5812.00
2018-04-17T12:05:20.187Z,5712.00
2018-04-17T12:06:20.560Z,5632.00
2018-04-17T12:07:20.149Z,5496.00
2018-04-17T12:08:20.133Z,5344.00
2018-04-17T12:09:20.123Z,5248.00
2018-04-17T12:10:20.104Z,5280.00
2018-04-17T12:11:20.127Z,5352.00
2018-04-17T12:12:20.076Z,5284.00
2018-04-17T12:13:20.063Z,5120.00
2018-04-17T12:14:20.048Z,5016.00
2018-04-17T12:15:20.038Z,4912.00
2018-04-17T12:16:20.018Z,4884.00
2018-04-17T12:17:20.000Z,4768.00
2018-04-17T12:18:19.987Z,4752.00
2018-04-17T12:19:19.968Z,4744.00
2018-04-17T12:20:20.006Z,4668.00
2018-04-17T12:21:19.944Z,4632.00
2018-04-17T12:22:19.919Z,4616.00
2018-04-17T12:23:19.908Z,4472.00
2018-04-17T12:24:19.893Z,4404.00
2018-04-17T12:25:19.878Z,4372.00
2018-04-17T12:26:19.860Z,4324.00
2018-04-17T12:27:19.842Z,4260.00
2018-04-17T12:28:19.845Z,4212.00
2018-04-17T12:29:19.845Z,4212.00
2018-04-17T12:30:19.857Z,4140.00
2018-04-17T12:31:19.922Z,4056.00
2018-04-17T12:32:19.846Z,4004.00
2018-04-17T12:33:19.861Z,3980.00
2018-04-17T12:34:19.850Z,3856.00
2018-04-17T12:35:19.848Z,3772.00
2018-04-17T12:36:19.814Z,3756.00
2018-04-17T12:37:19.809Z,3680.00
2018-04-17T12:38:19.786Z,3628.00
2018-04-17T12:39:19.651Z,3560.00
2018-04-17T12:40:19.634Z,3464.00
2018-04-17T12:41:19.620Z,3380.00
2018-04-17T12:42:19.621Z,3352.00
2018-04-17T12:43:19.587Z,3320.00
2018-04-17T12:44:19.582Z,3252.00
2018-04-17T12:45:19.564Z,3180.00
2018-04-17T12:46:19.561Z,3160.00
2018-04-17T12:47:19.525Z,3100.00
2018-04-17T12:48:19.512Z,3068.00
2018-04-17T12:49:19.489Z,3024.00
2018-04-17T12:50:19.467Z,2952.00
2018-04-17T12:51:19.458Z,2920.00
2018-04-17T12:52:19.438Z,2836.00